sensor_id;sensor_type;location;lat;lon;timestamp;P1;durP1;ratioP1;P2;durP2;ratioP2
77168;SDS011;66281;45.114;20.730;2022-12-28T00:07:34;43.08;;;18.70;;
77168;SDS011;66281;45.114;20.730;2022-12-28T00:17:34;33.30;;;16.42;;
77168;SDS011;66281;45.114;20.730;2022-12-28T00:27:35;35.25;;;17.98;;
77168;SDS011;66281;45.114;20.730;2022-12-28T00:37:35;24.40;;;12.50;;
77168;SDS011;66281;45.114;20.730;2022-12-28T00:47:38;30.92;;;10.60;;
77168;SDS011;66281;45.114;20.730;2022-12-28T00:57:38;28.42;;;11.70;;
77168;SDS011;66281;45.114;20.730;2022-12-28T01:07:38;14.53;;;7.77;;
77168;SDS011;66281;45.114;20.730;2022-12-28T01:17:39;25.13;;;11.65;;
77168;SDS011;66281;45.114;20.730;2022-12-28T01:27:40;26.20;;;12.90;;
77168;SDS011;66281;45.114;20.730;2022-12-28T01:37:40;25.33;;;12.37;;
77168;SDS011;66281;45.114;20.730;2022-12-28T01:47:42;65.80;;;28.50;;
77168;SDS011;66281;45.114;20.730;2022-12-28T01:57:44;34.93;;;14.80;;
77168;SDS011;66281;45.114;20.730;2022-12-28T02:07:52;28.53;;;12.87;;
77168;SDS011;66281;45.114;20.730;2022-12-28T02:17:57;24.13;;;10.47;;
77168;SDS011;66281;45.114;20.730;2022-12-28T02:48:44;21.00;;;12.17;;
77168;SDS011;66281;45.114;20.730;2022-12-28T03:19:47;24.10;;;11.73;;
77168;SDS011;66281;45.114;20.730;2022-12-28T03:29:55;34.03;;;15.43;;
77168;SDS011;66281;45.114;20.730;2022-12-28T03:50:29;63.95;;;25.17;;
77168;SDS011;66281;45.114;20.730;2022-12-28T04:00:30;49.73;;;21.77;;
77168;SDS011;66281;45.114;20.730;2022-12-28T04:10:32;40.70;;;19.83;;
77168;SDS011;66281;45.114;20.730;2022-12-28T04:20:33;48.23;;;20.07;;
77168;SDS011;66281;45.114;20.730;2022-12-28T04:30:35;57.13;;;21.15;;
77168;SDS011;66281;45.114;20.730;2022-12-28T04:40:35;41.13;;;16.40;;
77168;SDS011;66281;45.114;20.730;2022-12-28T04:50:36;38.25;;;16.10;;
77168;SDS011;66281;45.114;20.730;2022-12-28T05:00:37;35.90;;;15.77;;
77168;SDS011;66281;45.114;20.730;2022-12-28T05:10:37;38.20;;;17.38;;
77168;SDS011;66281;45.114;20.730;2022-12-28T05:20:38;49.00;;;20.47;;
77168;SDS011;66281;45.114;20.730;2022-12-28T05:30:38;69.07;;;29.27;;
77168;SDS011;66281;45.114;20.730;2022-12-28T05:40:39;77.25;;;35.53;;
77168;SDS011;66281;45.114;20.730;2022-12-28T05:50:39;61.85;;;30.98;;
77168;SDS011;66281;45.114;20.730;2022-12-28T06:00:40;67.78;;;33.08;;
77168;SDS011;66281;45.114;20.730;2022-12-28T06:10:40;72.20;;;34.60;;
77168;SDS011;66281;45.114;20.730;2022-12-28T06:20:41;62.60;;;29.58;;
77168;SDS011;66281;45.114;20.730;2022-12-28T06:30:41;207.70;;;91.95;;
77168;SDS011;66281;45.114;20.730;2022-12-28T06:40:41;86.25;;;37.05;;
77168;SDS011;66281;45.114;20.730;2022-12-28T06:50:42;102.28;;;40.85;;
77168;SDS011;66281;45.114;20.730;2022-12-28T07:00:42;82.38;;;36.58;;
77168;SDS011;66281;45.114;20.730;2022-12-28T07:10:43;33.47;;;16.33;;
77168;SDS011;66281;45.114;20.730;2022-12-28T07:20:43;20.92;;;10.50;;
77168;SDS011;66281;45.114;20.730;2022-12-28T07:30:44;26.92;;;12.30;;
77168;SDS011;66281;45.114;20.730;2022-12-28T07:40:44;28.00;;;14.18;;
77168;SDS011;66281;45.114;20.730;2022-12-28T07:50:45;208.95;;;77.00;;
77168;SDS011;66281;45.114;20.730;2022-12-28T08:00:45;75.27;;;28.13;;
77168;SDS011;66281;45.114;20.730;2022-12-28T08:10:46;74.78;;;32.20;;
77168;SDS011;66281;45.114;20.730;2022-12-28T08:20:46;190.35;;;69.88;;
77168;SDS011;66281;45.114;20.730;2022-12-28T08:30:47;50.97;;;24.15;;
77168;SDS011;66281;45.114;20.730;2022-12-28T08:40:54;31.00;;;15.05;;
77168;SDS011;66281;45.114;20.730;2022-12-28T08:50:59;38.50;;;21.03;;
77168;SDS011;66281;45.114;20.730;2022-12-28T09:01:14;70.28;;;31.58;;
77168;SDS011;66281;45.114;20.730;2022-12-28T09:11:16;52.10;;;20.87;;
77168;SDS011;66281;45.114;20.730;2022-12-28T09:21:18;121.57;;;39.78;;
77168;SDS011;66281;45.114;20.730;2022-12-28T09:31:20;25.87;;;9.67;;
77168;SDS011;66281;45.114;20.730;2022-12-28T09:51:34;63.53;;;29.67;;
77168;SDS011;66281;45.114;20.730;2022-12-28T10:01:37;12.23;;;8.40;;
77168;SDS011;66281;45.114;20.730;2022-12-28T10:11:39;14.88;;;12.82;;
77168;SDS011;66281;45.114;20.730;2022-12-28T10:21:41;13.53;;;4.40;;
77168;SDS011;66281;45.114;20.730;2022-12-28T10:31:42;17.37;;;10.90;;
77168;SDS011;66281;45.114;20.730;2022-12-28T10:41:43;11.93;;;7.43;;
77168;SDS011;66281;45.114;20.730;2022-12-28T10:51:56;10.80;;;4.20;;
77168;SDS011;66281;45.114;20.730;2022-12-28T11:12:30;7.18;;;3.38;;
77168;SDS011;66281;45.114;20.730;2022-12-28T11:22:30;5.43;;;3.00;;
77168;SDS011;66281;45.114;20.730;2022-12-28T11:32:32;7.53;;;3.40;;
77168;SDS011;66281;45.114;20.730;2022-12-28T11:52:45;8.47;;;3.57;;
77168;SDS011;66281;45.114;20.730;2022-12-28T12:02:50;10.90;;;5.10;;
77168;SDS011;66281;45.114;20.730;2022-12-28T12:12:55;9.57;;;3.80;;
77168;SDS011;66281;45.114;20.730;2022-12-28T12:23:40;6.60;;;4.07;;
77168;SDS011;66281;45.114;20.730;2022-12-28T12:33:35;11.23;;;5.70;;
77168;SDS011;66281;45.114;20.730;2022-12-28T12:53:46;10.98;;;4.95;;
77168;SDS011;66281;45.114;20.730;2022-12-28T13:04:07;11.33;;;5.77;;
77168;SDS011;66281;45.114;20.730;2022-12-28T13:14:16;21.10;;;8.97;;
77168;SDS011;66281;45.114;20.730;2022-12-28T13:34:28;14.77;;;6.53;;
77168;SDS011;66281;45.114;20.730;2022-12-28T13:44:48;14.03;;;6.93;;
77168;SDS011;66281;45.114;20.730;2022-12-28T13:54:53;12.90;;;7.33;;
77168;SDS011;66281;45.114;20.730;2022-12-28T14:04:55;27.77;;;15.47;;
77168;SDS011;66281;45.114;20.730;2022-12-28T14:14:57;32.07;;;15.73;;
77168;SDS011;66281;45.114;20.730;2022-12-28T14:34:59;68.90;;;32.53;;
77168;SDS011;66281;45.114;20.730;2022-12-28T14:45:19;111.57;;;44.13;;
77168;SDS011;66281;45.114;20.730;2022-12-28T14:55:22;64.45;;;29.17;;
77168;SDS011;66281;45.114;20.730;2022-12-28T15:26:22;464.53;;;185.47;;
77168;SDS011;66281;45.114;20.730;2022-12-28T15:36:23;309.47;;;170.20;;
77168;SDS011;66281;45.114;20.730;2022-12-28T15:46:28;826.23;;;404.33;;
77168;SDS011;66281;45.114;20.730;2022-12-28T15:57:09;631.63;;;300.17;;
77168;SDS011;66281;45.114;20.730;2022-12-28T16:07:19;273.05;;;119.75;;
77168;SDS011;66281;45.114;20.730;2022-12-28T16:17:38;49.93;;;25.13;;
77168;SDS011;66281;45.114;20.730;2022-12-28T16:28:21;52.72;;;24.83;;
77168;SDS011;66281;45.114;20.730;2022-12-28T16:38:36;272.93;;;86.67;;
77168;SDS011;66281;45.114;20.730;2022-12-28T16:48:37;236.35;;;83.80;;
77168;SDS011;66281;45.114;20.730;2022-12-28T16:58:38;241.33;;;82.80;;
77168;SDS011;66281;45.114;20.730;2022-12-28T17:08:39;204.07;;;66.60;;
77168;SDS011;66281;45.114;20.730;2022-12-28T17:18:42;102.95;;;40.63;;
77168;SDS011;66281;45.114;20.730;2022-12-28T17:28:56;107.17;;;37.30;;
77168;SDS011;66281;45.114;20.730;2022-12-28T17:38:57;103.07;;;38.80;;
77168;SDS011;66281;45.114;20.730;2022-12-28T17:48:58;72.45;;;28.70;;
77168;SDS011;66281;45.114;20.730;2022-12-28T17:59:01;71.43;;;26.80;;
77168;SDS011;66281;45.114;20.730;2022-12-28T18:09:02;101.90;;;37.08;;
77168;SDS011;66281;45.114;20.730;2022-12-28T18:19:02;130.60;;;41.20;;
77168;SDS011;66281;45.114;20.730;2022-12-28T18:29:06;123.28;;;34.90;;
77168;SDS011;66281;45.114;20.730;2022-12-28T18:39:06;66.80;;;21.87;;
77168;SDS011;66281;45.114;20.730;2022-12-28T18:49:07;46.83;;;20.35;;
77168;SDS011;66281;45.114;20.730;2022-12-28T18:59:07;36.40;;;17.53;;
77168;SDS011;66281;45.114;20.730;2022-12-28T19:09:08;43.63;;;18.77;;
77168;SDS011;66281;45.114;20.730;2022-12-28T19:19:09;71.82;;;24.65;;
77168;SDS011;66281;45.114;20.730;2022-12-28T19:29:10;49.17;;;19.53;;
77168;SDS011;66281;45.114;20.730;2022-12-28T19:39:11;47.90;;;20.13;;
77168;SDS011;66281;45.114;20.730;2022-12-28T19:49:12;47.33;;;22.98;;
77168;SDS011;66281;45.114;20.730;2022-12-28T19:59:12;51.63;;;22.40;;
77168;SDS011;66281;45.114;20.730;2022-12-28T20:09:14;34.25;;;16.88;;
77168;SDS011;66281;45.114;20.730;2022-12-28T20:19:22;26.23;;;11.53;;
77168;SDS011;66281;45.114;20.730;2022-12-28T20:29:25;28.50;;;13.30;;
77168;SDS011;66281;45.114;20.730;2022-12-28T20:39:25;88.13;;;33.08;;
77168;SDS011;66281;45.114;20.730;2022-12-28T20:49:26;22.15;;;11.10;;
77168;SDS011;66281;45.114;20.730;2022-12-28T20:59:27;20.37;;;10.47;;
77168;SDS011;66281;45.114;20.730;2022-12-28T21:09:28;17.40;;;10.10;;
77168;SDS011;66281;45.114;20.730;2022-12-28T21:19:28;36.60;;;18.80;;
77168;SDS011;66281;45.114;20.730;2022-12-28T21:29:29;32.35;;;15.90;;
77168;SDS011;66281;45.114;20.730;2022-12-28T21:39:29;31.17;;;14.57;;
77168;SDS011;66281;45.114;20.730;2022-12-28T21:49:30;30.85;;;14.93;;
77168;SDS011;66281;45.114;20.730;2022-12-28T21:59:30;26.17;;;11.50;;
77168;SDS011;66281;45.114;20.730;2022-12-28T22:09:32;24.17;;;10.33;;
77168;SDS011;66281;45.114;20.730;2022-12-28T22:19:32;20.48;;;9.15;;
77168;SDS011;66281;45.114;20.730;2022-12-28T22:29:33;25.47;;;11.87;;
77168;SDS011;66281;45.114;20.730;2022-12-28T22:39:33;31.65;;;15.80;;
77168;SDS011;66281;45.114;20.730;2022-12-28T22:49:34;74.95;;;37.08;;
77168;SDS011;66281;45.114;20.730;2022-12-28T22:59:34;42.33;;;23.08;;
77168;SDS011;66281;45.114;20.730;2022-12-28T23:09:35;31.35;;;18.42;;
77168;SDS011;66281;45.114;20.730;2022-12-28T23:19:35;27.08;;;14.50;;
77168;SDS011;66281;45.114;20.730;2022-12-28T23:29:36;21.37;;;10.90;;
77168;SDS011;66281;45.114;20.730;2022-12-28T23:39:36;21.15;;;9.90;;
77168;SDS011;66281;45.114;20.730;2022-12-28T23:49:36;16.90;;;7.07;;
77168;SDS011;66281;45.114;20.730;2022-12-28T23:59:37;15.30;;;7.80;;
